Dobbin, Texas
Current Conditions -  °F | °C
As of 4:53 PM on Wednesday 17 Dec 2014 (Local Time) from KCXO Reporting Station
Overcast Overcast  
Wind Chill: 59°   Ceiling: 8000
Heat Index: 59°   Visibility: 10mi
Dew Point: 48°   Wind: 5mph
Humidity: 67%   Direction: 100°E
Pressure: 30.11"   Gusts: NA
Location:  30.37°N, 95.78°W
Report Text: KCXO 172253Z AUTO 10004KT 10SM BKN080 OVC095 15/09 A3011 RMK AO2 SLP194 T01500089
Loading
Personal Weather Stations






























Interactive Weather Map New forecast layout! Learn more

10-Day Weather Forecast

Advertisements
Track Severe Weather on mobile